Time;durP1;ratioP1;P1;durP2;ratioP2;P2;SDS_P1;SDS_P2;PMS_P1;PMS_P2;Temp;Humidity;BMP_temperature;BMP_pressure;BME280_temperature;BME280_humidity;BME280_pressure;Samples;Min_cycle;Max_cycle;Signal;HPM_P1;HPM_P2
2023/03/10 00:02:22;;;;;;;7.60;5.15;;;;;;;8.50;56.73;97678.66;5108139;28;20128;-77
2023/03/10 00:04:50;;;;;;;6.15;4.10;;;;;;;8.70;56.70;97714.16;5107728;28;20123;-77
2023/03/10 00:07:17;;;;;;;6.95;4.45;;;;;;;8.70;56.71;97716.81;5109150;28;20044;-76
2023/03/10 00:09:44;;;;;;;6.80;4.10;;;;;;;8.68;56.63;97706.34;5107975;28;20110;-77
2023/03/10 00:12:12;;;;;;;7.53;4.30;;;;;;;8.72;56.44;97716.69;5091355;28;20055;-76
2023/03/10 00:14:40;;;;;;;7.55;4.72;;;;;;;8.37;56.34;97646.19;5108175;28;20046;-76
2023/03/10 00:17:07;;;;;;;6.95;4.30;;;;;;;8.67;56.38;97702.03;5108983;28;20040;-76
2023/03/10 00:19:34;;;;;;;8.43;5.32;;;;;;;8.68;56.08;97694.94;5107729;28;20044;-76
2023/03/10 00:22:02;;;;;;;8.13;5.35;;;;;;;7.60;55.92;97512.91;5107786;28;20354;-76
2023/03/10 00:24:29;;;;;;;9.50;5.07;;;;;;;8.71;55.81;97685.97;5108856;28;20036;-76
2023/03/10 00:26:56;;;;;;;6.93;4.85;;;;;;;8.69;55.74;97688.72;5108638;28;20048;-76
2023/03/10 00:29:24;;;;;;;7.35;4.40;;;;;;;8.71;55.80;97683.31;5107753;28;20032;-76
2023/03/10 00:31:52;;;;;;;8.48;5.43;;;;;;;8.31;55.62;97613.16;5108668;28;20079;-76
2023/03/10 00:34:19;;;;;;;6.95;4.63;;;;;;;8.72;55.60;97669.16;5107698;28;20207;-76
2023/03/10 00:36:46;;;;;;;8.02;4.90;;;;;;;8.54;55.33;97634.38;5108249;28;20142;-76
2023/03/10 00:39:13;;;;;;;5.72;4.22;;;;;;;8.73;55.37;97661.13;5109150;28;20036;-76
2023/03/10 00:41:40;;;;;;;7.65;4.78;;;;;;;8.72;55.23;97654.16;5107414;28;20127;-76
2023/03/10 00:44:08;;;;;;;6.97;4.45;;;;;;;8.70;55.33;97650.78;5107429;28;20050;-76
2023/03/10 00:46:37;;;;;;;10.55;5.38;;;;;;;8.73;55.24;97647.91;5108771;28;20036;-76
2023/03/10 00:49:05;;;;;;;11.45;5.65;;;;;;;8.78;55.19;97637.00;5108031;28;20114;-76
2023/03/10 00:51:33;;;;;;;8.73;5.63;;;;;;;8.62;55.12;97595.06;5108179;28;20036;-76
2023/03/10 00:54:00;;;;;;;9.15;6.20;;;;;;;8.81;55.11;97626.22;5108203;28;20058;-76
2023/03/10 00:56:28;;;;;;;7.63;4.85;;;;;;;8.80;55.16;97633.28;5107787;28;20048;-76
2023/03/10 00:58:58;;;;;;;7.28;5.15;;;;;;;8.58;55.21;97591.81;5107645;28;20115;-76
2023/03/10 01:01:27;;;;;;;8.82;4.70;;;;;;;8.73;55.37;97621.50;5108281;28;20043;-78
2023/03/10 01:03:55;;;;;;;8.10;5.53;;;;;;;8.76;55.29;97618.63;5109291;28;20318;-77
2023/03/10 01:06:25;;;;;;;9.90;5.63;;;;;;;8.24;55.44;97548.59;5107638;28;20112;-76
2023/03/10 01:08:53;;;;;;;9.77;5.30;;;;;;;8.48;55.35;97574.97;5106979;28;20044;-78
2023/03/10 01:11:23;;;;;;;7.82;4.80;;;;;;;8.39;55.59;97540.50;5107579;28;20063;-78
2023/03/10 01:13:51;;;;;;;7.75;5.00;;;;;;;8.22;55.32;97508.28;5106592;28;20290;-78
2023/03/10 01:16:18;;;;;;;7.18;4.88;;;;;;;8.71;55.52;97591.72;5090191;28;20207;-77
2023/03/10 01:18:45;;;;;;;8.43;5.50;;;;;;;8.70;55.52;97583.91;5106513;28;20200;-77
2023/03/10 01:21:17;;;;;;;7.57;4.88;;;;;;;8.14;55.77;97486.06;5107571;28;20058;-77
2023/03/10 01:23:45;;;;;;;6.28;4.93;;;;;;;8.64;55.63;97580.78;5107874;28;20051;-77
2023/03/10 01:26:12;;;;;;;9.15;5.30;;;;;;;8.64;55.59;97572.00;5107663;28;20106;-78
2023/03/10 01:28:39;;;;;;;7.10;5.10;;;;;;;8.62;55.59;97569.47;5108003;28;20048;-75
2023/03/10 01:31:06;;;;;;;9.52;5.85;;;;;;;8.62;55.59;97566.84;5107426;28;20046;-77
2023/03/10 01:33:34;;;;;;;7.13;5.10;;;;;;;8.58;55.71;97560.13;5107745;28;20107;-79
2023/03/10 01:36:01;;;;;;;8.30;4.88;;;;;;;8.59;55.80;97563.59;5107257;28;20043;-79
2023/03/10 01:38:28;;;;;;;10.40;4.57;;;;;;;8.53;55.80;97548.22;5107162;28;20199;-79
2023/03/10 01:40:56;;;;;;;7.95;5.07;;;;;;;8.56;55.84;97546.19;5107226;28;20042;-78
2023/03/10 01:43:28;;;;;;;8.10;5.07;;;;;;;7.91;56.10;97458.75;5106112;28;20046;-78
2023/03/10 01:46:47;;;;;;;6.28;4.78;;;;;;;8.26;56.86;97501.81;5106949;28;20319;-77
2023/03/10 01:49:22;;;;;;;7.97;5.30;;;;;;;8.43;56.48;97534.88;5107155;28;20032;-78
2023/03/10 01:51:53;;;;;;;9.35;5.32;;;;;;;8.40;56.21;97534.25;5089843;28;20044;-77
2023/03/10 01:54:25;;;;;;;8.30;5.38;;;;;;;8.38;56.26;97518.53;5107064;28;20119;-78
2023/03/10 01:56:55;;;;;;;6.13;4.55;;;;;;;8.36;56.38;97520.44;5089151;28;20040;-78
2023/03/10 01:59:23;;;;;;;6.55;4.95;;;;;;;8.37;56.14;97510.72;5107279;28;20058;-77
2023/03/10 02:01:51;;;;;;;7.13;4.53;;;;;;;7.59;56.24;97387.31;5106096;28;20042;-77
2023/03/10 02:04:26;;;;;;;7.53;4.35;;;;;;;7.82;56.64;97426.00;5107058;28;20056;-76
2023/03/10 02:06:53;;;;;;;7.95;4.07;;;;;;;7.70;56.47;97408.44;5107114;28;20085;-76
2023/03/10 02:09:21;;;;;;;5.72;4.55;;;;;;;8.23;56.54;97495.94;5106291;28;20085;-76
2023/03/10 02:11:49;;;;;;;7.07;4.13;;;;;;;8.19;56.64;97487.41;5106179;28;20372;-76
2023/03/10 02:14:18;;;;;;;6.47;4.15;;;;;;;8.16;56.68;97489.44;5106283;28;20044;-76
2023/03/10 02:16:45;;;;;;;6.30;4.15;;;;;;;8.13;56.64;97484.38;5105777;28;20333;-76
2023/03/10 02:19:26;;;;;;;7.07;5.10;;;;;;;7.20;57.04;97343.63;5105417;28;20035;-75
2023/03/10 02:21:59;;;;;;;7.03;4.78;;;;;;;8.07;56.97;97471.66;5105483;28;20103;-76
2023/03/10 02:24:33;;;;;;;13.23;5.32;;;;;;;8.08;57.12;97465.41;5105337;28;20040;-76
2023/03/10 02:27:03;;;;;;;7.90;5.07;;;;;;;8.04;57.03;97462.16;5106353;28;20048;-76
2023/03/10 02:29:36;;;;;;;7.63;5.82;;;;;;;8.00;57.36;97456.28;5105282;28;20038;-76
2023/03/10 02:32:03;;;;;;;6.47;5.25;;;;;;;8.01;56.95;97452.69;5106250;28;20036;-76
2023/03/10 02:34:30;;;;;;;8.32;5.00;;;;;;;7.96;57.23;97449.53;5105413;28;20040;-76
2023/03/10 02:36:57;;;;;;;7.60;5.07;;;;;;;7.91;57.24;97446.41;5089457;28;20130;-76
2023/03/10 02:39:24;;;;;;;10.70;5.28;;;;;;;6.79;57.38;97271.09;5106339;28;20115;-76
2023/03/10 02:41:52;;;;;;;7.40;5.00;;;;;;;7.77;57.78;97437.84;5106363;28;20036;-77
2023/03/10 02:44:23;;;;;;;8.90;4.95;;;;;;;6.84;57.45;97295.31;5105922;28;20036;-77
2023/03/10 02:46:51;;;;;;;7.00;4.28;;;;;;;7.75;57.74;97432.69;5105715;28;20040;-77
2023/03/10 02:49:22;;;;;;;7.68;4.88;;;;;;;7.72;57.84;97437.34;5105341;28;20195;-77
2023/03/10 02:51:49;;;;;;;5.75;3.97;;;;;;;7.17;57.62;97349.97;5105786;28;20102;-77
2023/03/10 02:54:16;;;;;;;7.18;4.80;;;;;;;6.54;57.59;97252.75;5105773;28;20040;-78
2023/03/10 02:56:44;;;;;;;6.13;4.57;;;;;;;6.85;57.53;97327.75;5106033;28;20036;-77
2023/03/10 02:59:11;;;;;;;7.43;4.88;;;;;;;7.03;57.42;97347.50;5105945;28;20292;-77
2023/03/10 03:01:38;;;;;;;6.57;4.90;;;;;;;7.61;57.61;97417.88;5105659;28;20059;-77
2023/03/10 03:04:06;;;;;;;7.43;5.47;;;;;;;7.58;57.64;97410.19;5105742;28;20052;-77
2023/03/10 03:06:33;;;;;;;7.38;4.55;;;;;;;7.59;57.39;97409.25;5104894;28;20048;-76
2023/03/10 03:09:00;;;;;;;5.88;4.55;;;;;;;7.54;57.52;97406.09;5105647;28;20044;-75
2023/03/10 03:11:27;;;;;;;6.20;3.95;;;;;;;7.49;57.30;97407.41;5105127;28;20036;-75
2023/03/10 03:13:54;;;;;;;7.43;5.00;;;;;;;5.81;57.19;97134.41;5106068;28;20055;-75
2023/03/10 03:16:22;;;;;;;7.72;4.13;;;;;;;7.50;57.30;97406.44;5106361;28;20051;-76
2023/03/10 03:18:49;;;;;;;7.03;4.88;;;;;;;7.50;57.08;97396.75;5104879;28;20316;-76
2023/03/10 03:21:17;;;;;;;6.25;4.25;;;;;;;6.42;57.11;97215.84;5105368;28;20101;-76
2023/03/10 03:23:45;;;;;;;6.90;4.97;;;;;;;7.44;57.00;97394.56;5108309;28;20055;-76
2023/03/10 03:26:17;;;;;;;7.47;4.75;;;;;;;7.42;57.01;97393.00;5109638;28;20046;-76
2023/03/10 03:28:45;;;;;;;7.95;4.30;;;;;;;7.30;57.01;97389.44;5109549;28;20050;-76
2023/03/10 03:31:17;;;;;;;7.85;4.13;;;;;;;6.62;56.95;97272.31;5110217;28;20085;-75
2023/03/10 03:33:44;;;;;;;7.07;4.22;;;;;;;7.35;56.65;97380.25;5109906;28;20185;-76
2023/03/10 03:36:11;;;;;;;5.90;4.13;;;;;;;7.34;56.55;97375.94;5108593;28;20046;-75
2023/03/10 03:38:40;;;;;;;6.22;3.85;;;;;;;6.60;56.52;97252.31;5109619;28;20349;-75
2023/03/10 03:41:07;;;;;;;6.53;4.13;;;;;;;7.37;56.31;97366.97;5108671;28;20044;-75
2023/03/10 03:43:34;;;;;;;6.13;3.70;;;;;;;6.98;56.32;97294.31;5109281;28;20050;-76
2023/03/10 03:46:01;;;;;;;7.63;4.20;;;;;;;7.06;56.23;97299.84;5108682;28;20048;-75
2023/03/10 03:48:27;;;;;;;5.28;3.83;;;;;;;7.26;56.07;97343.19;5109665;28;20040;-75
2023/03/10 03:50:54;;;;;;;7.50;4.40;;;;;;;7.18;55.81;97335.84;5110116;28;20036;-76
2023/03/10 03:53:21;;;;;;;5.95;4.25;;;;;;;7.12;56.13;97335.44;5110058;28;20043;-75
2023/03/10 03:55:49;;;;;;;6.57;3.63;;;;;;;6.42;55.89;97231.63;5109004;28;20056;-76
2023/03/10 03:58:16;;;;;;;6.80;3.97;;;;;;;7.00;56.37;97330.13;5110308;28;20038;-75
2023/03/10 04:00:43;;;;;;;8.98;3.80;;;;;;;7.00;56.35;97318.75;5109406;28;20048;-75
2023/03/10 04:03:11;;;;;;;7.18;4.47;;;;;;;6.41;56.26;97235.22;5110082;28;20231;-75
2023/03/10 04:05:38;;;;;;;4.93;3.42;;;;;;;6.98;56.21;97304.84;5109874;28;20212;-75
2023/03/10 04:08:05;;;;;;;6.22;4.38;;;;;;;6.99;56.06;97303.91;5110193;28;20044;-75
2023/03/10 04:10:32;;;;;;;6.28;4.28;;;;;;;6.96;56.10;97298.84;5109495;28;20051;-75
2023/03/10 04:13:01;;;;;;;4.57;3.42;;;;;;;5.89;55.82;97126.81;5108802;28;20050;-75
2023/03/10 04:15:27;;;;;;;5.65;4.15;;;;;;;6.99;56.01;97282.81;5109788;28;20050;-75
2023/03/10 04:17:56;;;;;;;7.13;4.78;;;;;;;6.99;55.90;97282.81;5108864;28;20044;-76
2023/03/10 04:20:23;;;;;;;6.07;3.97;;;;;;;6.99;55.77;97270.50;5109216;28;20046;-76
2023/03/10 04:22:50;;;;;;;6.68;4.75;;;;;;;5.67;55.59;97054.75;5109310;28;20050;-76
2023/03/10 04:25:18;;;;;;;6.70;4.10;;;;;;;6.96;55.80;97254.06;5109403;28;20032;-76
2023/03/10 04:27:45;;;;;;;6.60;4.88;;;;;;;6.96;55.66;97247.03;5109073;28;20035;-75
2023/03/10 04:30:14;;;;;;;8.05;4.15;;;;;;;6.97;55.66;97242.59;5108713;28;20042;-76
2023/03/10 04:32:41;;;;;;;6.95;3.97;;;;;;;6.95;55.61;97242.72;5108700;28;20061;-75
2023/03/10 04:35:11;;;;;;;6.65;4.35;;;;;;;6.97;55.32;97242.59;5107633;28;20054;-76
2023/03/10 04:37:38;;;;;;;12.38;4.68;;;;;;;7.00;55.61;97240.56;5109080;28;20036;-76
2023/03/10 04:40:08;;;;;;;6.68;4.22;;;;;;;7.02;55.52;97238.66;5108037;28;20040;-76
2023/03/10 04:42:35;;;;;;;6.72;4.18;;;;;;;7.03;55.50;97229.81;5109131;28;20102;-76
2023/03/10 04:45:02;;;;;;;7.45;4.63;;;;;;;6.47;55.33;97144.47;5108972;28;20043;-76
2023/03/10 04:47:30;;;;;;;6.93;5.03;;;;;;;6.97;55.69;97222.38;5108130;28;20097;-75
2023/03/10 04:49:57;;;;;;;8.15;4.55;;;;;;;6.97;55.68;97226.78;5107066;28;20050;-75
2023/03/10 04:52:24;;;;;;;5.90;4.35;;;;;;;6.89;55.72;97208.94;5107385;28;20065;-74
2023/03/10 04:54:51;;;;;;;7.60;4.72;;;;;;;6.96;55.71;97218.06;5107625;28;20058;-74
2023/03/10 04:57:18;;;;;;;8.30;4.85;;;;;;;6.96;55.71;97214.56;5107898;28;20039;-75
2023/03/10 04:59:44;;;;;;;10.30;5.55;;;;;;;6.95;55.70;97203.19;5108093;28;20050;-75
2023/03/10 05:02:11;;;;;;;8.93;4.95;;;;;;;6.95;55.72;97200.56;5108065;28;20218;-75
2023/03/10 05:04:39;;;;;;;10.02;5.07;;;;;;;6.95;55.70;97207.63;5108434;28;20048;-75
2023/03/10 05:07:06;;;;;;;9.82;4.93;;;;;;;6.42;55.73;97122.91;5107118;28;20044;-75
2023/03/10 05:09:35;;;;;;;7.03;4.28;;;;;;;6.57;55.80;97142.84;5108310;28;20040;-76
2023/03/10 05:12:02;;;;;;;6.90;4.05;;;;;;;6.50;55.88;97136.34;5107045;28;20093;-76
2023/03/10 05:14:29;;;;;;;8.10;5.50;;;;;;;6.91;55.77;97198.28;5107812;28;20035;-76
2023/03/10 05:16:56;;;;;;;9.10;5.43;;;;;;;6.85;55.84;97183.78;5107092;28;20059;-75
2023/03/10 05:19:23;;;;;;;7.93;4.93;;;;;;;6.90;55.88;97193.97;5106788;28;20040;-75
2023/03/10 05:21:52;;;;;;;7.25;5.53;;;;;;;6.65;55.76;97145.75;5106594;28;20050;-75
2023/03/10 05:24:19;;;;;;;9.02;5.65;;;;;;;6.91;55.83;97187.75;5107488;28;20111;-75
2023/03/10 05:26:46;;;;;;;6.88;5.13;;;;;;;6.49;55.86;97116.25;5107640;28;20299;-75
2023/03/10 05:29:13;;;;;;;5.78;4.85;;;;;;;6.90;55.86;97180.81;5107640;28;20237;-75
2023/03/10 05:31:39;;;;;;;7.22;4.72;;;;;;;6.95;55.78;97173.41;5107323;28;20050;-75
2023/03/10 05:34:06;;;;;;;13.73;5.25;;;;;;;6.96;55.73;97175.06;5106357;28;20046;-75
2023/03/10 05:36:33;;;;;;;6.93;4.45;;;;;;;6.97;55.43;97172.31;5107378;28;20105;-75
2023/03/10 05:39:01;;;;;;;6.47;4.55;;;;;;;6.97;55.76;97174.13;5107315;28;20170;-75
2023/03/10 05:41:28;;;;;;;7.30;4.80;;;;;;;6.62;55.66;97110.91;5106820;28;20115;-75
2023/03/10 05:43:55;;;;;;;8.05;6.20;;;;;;;6.97;55.70;97171.50;5106498;28;20040;-75
2023/03/10 05:46:22;;;;;;;11.02;5.82;;;;;;;6.98;55.75;97173.16;5106924;28;20051;-75
2023/03/10 05:48:49;;;;;;;10.55;6.07;;;;;;;6.97;55.84;97174.13;5107801;28;20173;-75
2023/03/10 05:51:16;;;;;;;9.07;5.00;;;;;;;7.00;55.79;97172.09;5107304;28;20054;-75
2023/03/10 05:53:43;;;;;;;7.00;4.97;;;;;;;7.03;55.72;97168.41;5106245;28;20040;-76
2023/03/10 05:56:13;;;;;;;9.82;5.10;;;;;;;7.03;55.70;97158.69;5106854;28;20119;-76
2023/03/10 05:58:40;;;;;;;10.43;5.78;;;;;;;7.02;55.70;97149.13;5106874;28;20036;-76
2023/03/10 06:01:08;;;;;;;7.97;4.95;;;;;;;7.02;55.70;97156.19;5106107;28;20048;-75
2023/03/10 06:03:36;;;;;;;7.65;5.15;;;;;;;6.87;55.74;97112.56;5106025;28;20032;-76
2023/03/10 06:06:05;;;;;;;11.55;6.88;;;;;;;7.12;55.73;97141.34;5107052;28;20097;-76
2023/03/10 06:08:33;;;;;;;11.55;6.40;;;;;;;7.02;55.83;97124.56;5106576;28;20063;-76
2023/03/10 06:10:59;;;;;;;10.32;6.10;;;;;;;7.16;55.77;97134.91;5106876;28;20039;-76
2023/03/10 06:13:28;;;;;;;8.23;4.85;;;;;;;7.19;55.76;97124.13;5107200;28;20103;-76
2023/03/10 06:15:57;;;;;;;10.95;5.70;;;;;;;7.23;55.60;97127.38;5089304;28;20040;-76
2023/03/10 06:18:24;;;;;;;14.90;5.95;;;;;;;6.11;55.57;96934.97;5106683;28;20044;-76
2023/03/10 06:20:53;;;;;;;9.95;5.63;;;;;;;6.53;55.28;97001.06;5105324;28;20043;-76
2023/03/10 06:23:21;;;;;;;8.43;5.32;;;;;;;7.26;55.23;97101.63;5106431;28;20039;-76
2023/03/10 06:25:57;;;;;;;8.65;5.32;;;;;;;7.59;55.35;97136.88;5106103;28;20039;-76
2023/03/10 06:28:24;;;;;;;9.25;4.47;;;;;;;7.68;54.65;97137.00;5105570;28;20295;-76
2023/03/10 06:30:55;;;;;;;9.73;4.97;;;;;;;7.80;54.37;97132.56;5105618;28;20288;-76
2023/03/10 06:33:23;;;;;;;5.13;3.90;;;;;;;7.94;53.87;97140.22;5106906;28;20036;-76
2023/03/10 06:35:50;;;;;;;8.75;4.20;;;;;;;8.07;53.42;97136.59;5105442;28;20203;-76
2023/03/10 06:38:17;;;;;;;6.80;4.32;;;;;;;8.17;53.02;97140.19;5106578;28;20051;-76
2023/03/10 06:40:44;;;;;;;5.78;4.50;;;;;;;8.28;52.97;97126.94;5105197;28;20184;-76
2023/03/10 06:43:11;;;;;;;5.97;4.50;;;;;;;8.14;52.66;97099.03;5105307;28;20044;-76
2023/03/10 06:45:41;;;;;;;6.30;3.67;;;;;;;8.25;52.17;97112.22;5106341;28;20200;-76
2023/03/10 06:48:09;;;;;;;6.47;4.35;;;;;;;8.32;52.41;97116.03;5106208;28;20036;-76
2023/03/10 06:50:36;;;;;;;5.45;3.83;;;;;;;8.35;52.43;97117.56;5106451;28;20044;-76
2023/03/10 06:53:05;;;;;;;5.43;3.78;;;;;;;8.21;52.20;97079.13;5106556;28;20046;-76
2023/03/10 06:55:32;;;;;;;4.93;4.00;;;;;;;8.58;52.01;97115.69;5106113;28;20056;-75
2023/03/10 06:57:59;;;;;;;9.00;4.25;;;;;;;8.71;51.58;97110.22;5105250;28;20036;-76
2023/03/10 07:00:26;;;;;;;7.43;4.10;;;;;;;8.78;51.60;97117.53;5105772;28;20099;-76
2023/03/10 07:02:53;;;;;;;6.40;3.80;;;;;;;7.81;51.40;96923.28;5106090;28;20098;-76
2023/03/10 07:05:23;;;;;;;7.90;5.25;;;;;;;9.14;50.99;97104.81;5105082;28;20046;-76
2023/03/10 07:07:50;;;;;;;6.47;4.32;;;;;;;8.48;51.00;96973.06;5106288;28;20307;-76
2023/03/10 07:10:18;;;;;;;6.60;4.22;;;;;;;9.31;50.63;97054.03;5106124;28;20032;-76
2023/03/10 07:12:48;;;;;;;5.63;4.60;;;;;;;9.63;50.29;97083.00;5105455;28;20097;-76
2023/03/10 07:15:15;;;;;;;7.57;4.45;;;;;;;9.77;50.22;97084.44;5105191;28;20040;-76
2023/03/10 07:17:42;;;;;;;7.57;4.70;;;;;;;9.40;50.21;96997.75;5106022;28;20040;-76
2023/03/10 07:20:10;;;;;;;9.60;7.13;;;;;;;10.09;49.92;97074.50;5105737;28;20040;-76
2023/03/10 07:22:38;;;;;;;9.30;5.22;;;;;;;10.28;49.67;97081.63;5106039;28;20044;-76
2023/03/10 07:25:06;;;;;;;10.43;6.45;;;;;;;10.44;49.30;97073.97;5105966;28;20040;-76
2023/03/10 07:27:33;;;;;;;13.27;7.05;;;;;;;10.57;49.52;97061.28;5106396;28;20043;-76
2023/03/10 07:30:00;;;;;;;8.60;6.03;;;;;;;10.42;49.02;96998.28;5105433;28;20052;-76
2023/03/10 07:32:29;;;;;;;9.70;5.85;;;;;;;10.99;48.95;97052.19;5106159;28;20032;-76
2023/03/10 07:34:55;;;;;;;7.38;5.65;;;;;;;11.20;48.83;97056.31;5105367;28;20280;-76
2023/03/10 07:37:22;;;;;;;7.55;4.82;;;;;;;11.03;48.41;96988.16;5104766;28;20047;-76
2023/03/10 07:39:53;;;;;;;8.23;4.65;;;;;;;11.51;47.88;97045.47;5105805;28;20055;-76
2023/03/10 07:42:20;;;;;;;7.78;5.13;;;;;;;11.62;48.12;97050.59;5105631;28;20095;-75
2023/03/10 07:44:47;;;;;;;9.02;4.95;;;;;;;11.78;47.98;97040.16;5106017;28;20040;-76
2023/03/10 07:47:14;;;;;;;9.68;5.75;;;;;;;11.99;47.35;97036.41;5104958;28;20222;-76
2023/03/10 07:49:45;;;;;;;8.00;5.63;;;;;;;12.18;47.22;97033.69;5105225;28;20046;-76
2023/03/10 07:52:13;;;;;;;9.45;5.03;;;;;;;11.94;46.87;96954.56;5104548;28;20036;-76
2023/03/10 07:54:40;;;;;;;6.93;4.90;;;;;;;12.59;46.61;97016.31;5087415;28;20056;-76
2023/03/10 07:57:09;;;;;;;7.00;4.90;;;;;;;12.74;46.50;97016.56;5105112;28;20062;-76
2023/03/10 07:59:36;;;;;;;10.73;6.15;;;;;;;12.83;46.32;97016.47;5105044;28;20054;-77
2023/03/10 08:02:03;;;;;;;6.90;4.72;;;;;;;12.96;46.40;97017.91;5105431;28;20192;-76
2023/03/10 08:04:30;;;;;;;7.75;4.95;;;;;;;13.05;46.45;97017.78;5104471;28;20067;-76
2023/03/10 08:07:00;;;;;;;7.93;5.18;;;;;;;13.19;46.01;97005.75;5105492;28;20288;-76
2023/03/10 08:09:27;;;;;;;7.60;5.18;;;;;;;13.25;45.88;97006.94;5104922;28;20059;-77
2023/03/10 08:11:54;;;;;;;8.75;5.60;;;;;;;12.18;45.49;96823.91;5108337;28;20207;-76
2023/03/10 08:14:23;;;;;;;8.10;5.18;;;;;;;12.97;45.00;96919.38;5108534;28;20199;-76
2023/03/10 08:16:50;;;;;;;9.73;5.10;;;;;;;13.63;45.52;97010.97;5109206;28;20309;-77
2023/03/10 08:19:17;;;;;;;6.47;4.97;;;;;;;13.77;45.07;97007.69;5108555;28;20349;-76
2023/03/10 08:21:44;;;;;;;8.27;5.43;;;;;;;13.44;45.02;96927.75;5108647;28;20040;-76
2023/03/10 08:24:11;;;;;;;8.00;5.40;;;;;;;14.02;44.75;97012.09;5108553;28;20042;-77
2023/03/10 08:26:38;;;;;;;6.30;5.05;;;;;;;14.10;44.71;97006.78;5112613;28;20035;-76
2023/03/10 08:29:05;;;;;;;6.90;5.05;;;;;;;13.98;44.23;96957.50;5119762;28;20040;-75
2023/03/10 08:31:33;;;;;;;5.53;4.72;;;;;;;14.39;44.03;97002.84;5120072;28;20050;-75
2023/03/10 08:34:00;;;;;;;8.60;5.55;;;;;;;14.23;43.95;96954.88;5120274;28;20028;-75
2023/03/10 08:36:29;;;;;;;7.18;4.85;;;;;;;14.56;43.79;97004.50;5119512;28;20046;-75
2023/03/10 08:38:58;;;;;;;7.65;5.47;;;;;;;14.04;43.90;96922.22;5119263;28;20030;-75
2023/03/10 08:41:27;;;;;;;7.47;5.28;;;;;;;14.30;43.44;96929.22;5120109;28;20040;-75
2023/03/10 08:43:56;;;;;;;9.68;5.85;;;;;;;15.15;43.45;97033.69;5119597;28;20024;-75
2023/03/10 08:46:26;;;;;;;8.07;4.97;;;;;;;15.13;42.82;96972.50;5118701;28;20058;-75
2023/03/10 08:48:55;;;;;;;8.02;5.35;;;;;;;15.20;42.12;96949.47;5119119;28;20264;-75
2023/03/10 08:51:22;;;;;;;7.25;5.40;;;;;;;15.86;41.80;97011.47;5119666;28;20048;-76
2023/03/10 08:53:50;;;;;;;6.97;4.35;;;;;;;15.15;41.58;96870.97;5119176;28;20036;-76
2023/03/10 08:56:19;;;;;;;9.25;5.20;;;;;;;15.87;40.73;96973.09;5118966;28;20055;-76
2023/03/10 08:58:46;;;;;;;7.85;4.43;;;;;;;16.09;40.83;97001.66;5101932;28;20040;-76
2023/03/10 09:01:15;;;;;;;7.60;4.43;;;;;;;16.19;40.61;96998.78;5119250;28;20092;-76
2023/03/10 09:03:44;;;;;;;7.82;4.10;;;;;;;16.38;40.38;96992.13;5110175;28;20040;-75
2023/03/10 09:06:13;;;;;;;6.65;4.35;;;;;;;15.99;39.28;96937.78;5108532;28;20040;-75
2023/03/10 09:08:41;;;;;;;9.82;4.90;;;;;;;16.50;40.27;96988.84;5109586;28;20040;-75
2023/03/10 09:11:08;;;;;;;14.48;5.18;;;;;;;16.50;40.15;96993.38;5108889;28;20036;-75
2023/03/10 09:13:35;;;;;;;6.05;3.97;;;;;;;16.20;40.06;96934.47;5107385;28;20060;-76
2023/03/10 09:16:02;;;;;;;6.07;4.13;;;;;;;16.52;39.78;96989.50;5090459;28;20067;-76
2023/03/10 09:18:29;;;;;;;5.90;4.07;;;;;;;16.35;39.58;96942.53;5108000;28;20039;-76
2023/03/10 09:20:57;;;;;;;6.32;3.95;;;;;;;16.82;39.31;96982.44;5106638;28;20203;-75
2023/03/10 09:23:25;;;;;;;5.35;4.00;;;;;;;16.99;39.09;96977.75;5108139;28;20114;-76
2023/03/10 09:25:51;;;;;;;5.47;4.10;;;;;;;16.88;39.04;96956.81;5107800;28;20116;-76
2023/03/10 09:28:18;;;;;;;5.68;3.80;;;;;;;17.06;38.96;96983.22;5107558;28;20038;-76
2023/03/10 09:30:46;;;;;;;12.18;5.35;;;;;;;17.10;39.22;96987.19;5108229;28;20040;-76
2023/03/10 09:33:15;;;;;;;11.27;6.20;;;;;;;16.79;39.11;96918.59;5089967;28;20109;-76
2023/03/10 09:35:43;;;;;;;12.90;6.22;;;;;;;17.35;39.40;96979.75;5106523;28;20044;-76
2023/03/10 09:38:09;;;;;;;8.15;5.95;;;;;;;17.11;38.79;96917.44;5107921;28;20292;-75
2023/03/10 09:40:42;;;;;;;6.30;5.10;;;;;;;17.65;37.51;96977.94;5106596;28;20043;-76
2023/03/10 09:43:15;;;;;;;9.45;5.68;;;;;;;17.52;36.94;96933.88;5107384;28;20032;-76
2023/03/10 09:45:49;;;;;;;8.13;5.88;;;;;;;18.03;36.42;96966.03;5108709;28;20099;-76
2023/03/10 09:48:36;;;;;;;8.10;5.22;;;;;;;18.15;35.39;96966.38;5106399;28;20036;-76
2023/03/10 09:51:12;;;;;;;9.50;5.28;;;;;;;18.14;37.41;96970.06;5106785;28;20082;-75
2023/03/10 09:53:50;;;;;;;9.70;6.25;;;;;;;17.65;36.57;96900.25;5106216;28;20036;-76
2023/03/10 09:56:21;;;;;;;12.80;7.05;;;;;;;18.01;37.08;96953.84;5105801;28;20120;-76
2023/03/10 09:58:52;;;;;;;7.78;5.60;;;;;;;18.17;37.04;96967.00;5106973;28;20035;-76
2023/03/10 10:01:23;;;;;;;9.55;6.30;;;;;;;18.06;36.95;96970.19;5106332;28;20199;-75
2023/03/10 10:03:53;;;;;;;8.35;6.07;;;;;;;17.88;37.36;96933.09;5106480;28;20292;-75
2023/03/10 10:06:24;;;;;;;7.97;6.30;;;;;;;18.24;36.44;96976.78;5106374;28;20051;-76
2023/03/10 10:08:56;;;;;;;8.18;6.35;;;;;;;18.34;36.46;96971.09;5105449;28;20040;-76
2023/03/10 10:11:25;;;;;;;7.40;5.03;;;;;;;18.01;36.68;96925.19;5107006;28;20063;-75
2023/03/10 10:14:11;;;;;;;8.13;5.90;;;;;;;18.32;35.05;96973.16;5106892;28;20040;-76
2023/03/10 10:16:48;;;;;;;9.15;6.57;;;;;;;18.41;35.41;96968.50;5106811;28;20042;-75
2023/03/10 10:19:20;;;;;;;8.55;5.32;;;;;;;18.53;36.44;96969.66;5106267;28;20047;-75
2023/03/10 10:21:54;;;;;;;11.90;6.93;;;;;;;17.13;36.39;96738.78;5106146;28;20188;-75
2023/03/10 10:24:21;;;;;;;10.23;6.50;;;;;;;18.48;36.97;96964.03;5106239;28;20042;-75
2023/03/10 10:26:50;;;;;;;9.73;5.68;;;;;;;18.68;36.71;96978.47;5105101;28;20036;-75
2023/03/10 10:29:21;;;;;;;8.48;6.65;;;;;;;18.66;36.28;96947.50;5106345;28;20103;-75
2023/03/10 10:32:07;;;;;;;9.52;7.55;;;;;;;18.88;34.68;96967.91;5088532;28;20250;-76
2023/03/10 10:34:34;;;;;;;11.70;7.63;;;;;;;18.99;36.61;96979.97;5106603;28;20227;-76
2023/03/10 10:37:04;;;;;;;9.95;6.63;;;;;;;19.08;36.20;96978.78;5104973;28;20115;-75
2023/03/10 10:39:33;;;;;;;11.25;6.82;;;;;;;19.14;36.22;96969.97;5105233;28;20039;-76
2023/03/10 10:42:23;;;;;;;8.20;6.25;;;;;;;18.94;34.47;96920.69;5106492;28;20036;-76
2023/03/10 10:44:52;;;;;;;9.15;7.18;;;;;;;19.34;35.71;96972.78;5105340;28;20040;-76
2023/03/10 10:47:27;;;;;;;8.20;7.13;;;;;;;19.24;34.96;96951.63;5105832;28;20174;-76
2023/03/10 10:49:55;;;;;;;9.32;7.05;;;;;;;18.67;36.38;96856.09;5105555;28;20177;-76
2023/03/10 10:52:25;;;;;;;9.63;6.95;;;;;;;18.99;36.00;96900.28;5105853;28;20040;-75
2023/03/10 10:54:56;;;;;;;7.82;5.65;;;;;;;19.60;35.69;96961.38;5104728;28;20074;-75
2023/03/10 10:57:30;;;;;;;11.70;8.13;;;;;;;19.65;35.05;96958.91;5105836;28;20054;-76
2023/03/10 11:00:17;;;;;;;8.98;6.45;;;;;;;19.68;33.99;96970.09;5105621;28;20044;-75
2023/03/10 11:02:45;;;;;;;10.85;6.63;;;;;;;19.82;35.76;96953.03;5105552;28;20039;-76
2023/03/10 11:05:17;;;;;;;6.40;4.90;;;;;;;19.41;34.49;96871.59;5105665;28;20044;-76
2023/03/10 11:07:44;;;;;;;8.40;6.82;;;;;;;19.81;35.68;96953.22;5104162;28;20036;-76
2023/03/10 11:10:14;;;;;;;10.48;6.43;;;;;;;19.61;35.69;96906.63;5089237;28;20036;-75
2023/03/10 11:12:56;;;;;;;8.00;5.20;;;;;;;20.04;33.06;96937.59;5104644;28;20036;-76
2023/03/10 11:15:30;;;;;;;6.63;4.82;;;;;;;17.37;34.25;96485.16;5105343;28;20039;-76
2023/03/10 11:18:01;;;;;;;8.32;5.28;;;;;;;19.94;34.18;96885.25;5105853;28;20307;-75
2023/03/10 11:20:38;;;;;;;5.68;4.93;;;;;;;20.21;34.27;96921.91;5105722;28;20036;-75
2023/03/10 11:23:16;;;;;;;7.80;4.75;;;;;;;20.23;33.04;96919.88;5104348;28;20055;-76
2023/03/10 11:25:49;;;;;;;8.18;4.55;;;;;;;19.42;33.31;96809.63;5104551;28;20058;-76
2023/03/10 11:28:35;;;;;;;6.32;4.53;;;;;;;20.17;32.02;96910.75;5104888;28;20036;-75
2023/03/10 11:31:14;;;;;;;6.13;3.60;;;;;;;19.59;33.57;96815.47;5105514;28;20050;-75
2023/03/10 11:33:48;;;;;;;4.75;3.13;;;;;;;19.79;33.08;96871.94;5088228;28;20060;-75
2023/03/10 11:36:35;;;;;;;6.72;2.58;;;;;;;19.89;31.79;96855.47;5104896;28;20050;-76
2023/03/10 11:39:10;;;;;;;4.60;2.45;;;;;;;20.14;32.77;96903.09;5105422;28;20040;-75
2023/03/10 11:41:44;;;;;;;4.90;2.50;;;;;;;20.16;32.94;96900.19;5104696;28;20109;-75
2023/03/10 11:44:22;;;;;;;4.90;2.63;;;;;;;20.14;32.80;96896.88;5107373;28;20303;-75
2023/03/10 11:46:58;;;;;;;3.95;2.80;;;;;;;19.82;32.50;96852.75;5108054;28;20044;-75